Time;durP1;ratioP1;P1;durP2;ratioP2;P2;SDS_P1;SDS_P2;PMS_P1;PMS_P2;Temp;Humidity;BMP_temperature;BMP_pressure;BME280_temperature;BME280_humidity;BME280_pressure;Samples;Min_cycle;Max_cycle;Signal;HPM_P1;HPM_P2
2022/07/28 00:04:47;;;;;;;4.13;0.60;;;;;;;16.20;37.73;100911.47;10493994;28;20226;-78
2022/07/28 00:09:50;;;;;;;3.13;0.90;;;;;;;15.99;38.09;100900.28;10474473;28;20922;-79
2022/07/28 00:14:55;;;;;;;2.20;0.50;;;;;;;15.95;38.94;100909.88;10509522;28;20196;-84
2022/07/28 00:19:57;;;;;;;1.50;0.50;;;;;;;16.28;37.51;100896.28;10493188;28;20223;-78
2022/07/28 00:24:59;;;;;;;1.65;0.45;;;;;;;15.77;38.85;100903.59;10492593;28;20199;-79
2022/07/28 00:30:04;;;;;;;2.93;0.77;;;;;;;15.76;39.12;100896.25;10489183;28;20304;-81
2022/07/28 00:35:07;;;;;;;2.97;0.77;;;;;;;15.85;38.90;100894.13;10468969;28;20223;-79
2022/07/28 00:40:10;;;;;;;2.07;0.70;;;;;;;15.84;39.04;100899.00;10491536;28;20491;-79
2022/07/28 00:45:12;;;;;;;2.27;0.67;;;;;;;15.74;38.89;100887.28;10475485;28;20223;-78
2022/07/28 00:50:17;;;;;;;4.93;0.40;;;;;;;15.23;40.39;100889.66;10492784;28;20251;-80
2022/07/28 00:55:20;;;;;;;1.73;0.30;;;;;;;15.39;40.06;100882.06;10493035;28;20231;-79
2022/07/28 01:00:22;;;;;;;1.20;0.50;;;;;;;15.30;39.93;100874.84;10474602;28;20606;-83
2022/07/28 01:05:30;;;;;;;4.40;0.60;;;;;;;15.46;39.75;100875.81;10490805;28;20275;-78
2022/07/28 01:11:08;;;;;;;3.13;0.75;;;;;;;15.29;40.26;100882.53;10482117;28;20242;-79
2022/07/28 01:16:10;;;;;;;4.03;0.80;;;;;;;15.35;40.16;100886.81;10491182;28;20237;-84
2022/07/28 01:21:14;;;;;;;1.63;0.60;;;;;;;15.18;40.56;100887.03;10469877;28;20599;-83
2022/07/28 01:26:35;;;;;;;3.93;0.43;;;;;;;15.46;40.01;100879.47;10489856;28;20191;-78
2022/07/28 01:31:42;;;;;;;1.80;0.40;;;;;;;15.17;40.56;100874.03;10484133;28;20214;-78
2022/07/28 01:36:51;;;;;;;2.57;0.80;;;;;;;15.18;40.62;100867.16;10491059;28;20225;-78
2022/07/28 01:41:55;;;;;;;3.93;0.80;;;;;;;15.48;39.39;100868.59;10491580;28;20195;-78
2022/07/28 01:46:57;;;;;;;1.50;0.53;;;;;;;15.20;40.17;100867.66;10473714;28;20239;-79
2022/07/28 01:52:01;;;;;;;3.75;0.80;;;;;;;15.16;40.38;100869.53;10470160;28;20236;-78
2022/07/28 01:57:07;;;;;;;4.10;1.07;;;;;;;15.23;40.34;100863.28;10490329;28;20245;-78
2022/07/28 02:02:12;;;;;;;2.43;0.80;;;;;;;15.41;40.00;100862.66;10490868;28;20498;-78
2022/07/28 02:07:15;;;;;;;3.43;0.93;;;;;;;15.09;40.97;100855.09;10495281;28;20269;-78
2022/07/28 02:12:19;;;;;;;4.40;0.70;;;;;;;14.91;40.93;100865.84;10499915;28;20195;-77
2022/07/28 02:17:26;;;;;;;3.03;0.80;;;;;;;14.91;41.45;100868.66;10487434;28;20649;-83
2022/07/28 02:22:29;;;;;;;4.47;0.70;;;;;;;14.90;41.34;100858.50;10505869;28;20252;-78
2022/07/28 02:27:41;;;;;;;2.75;0.63;;;;;;;14.89;41.84;100859.69;10486554;28;20386;-77
2022/07/28 02:32:55;;;;;;;6.37;1.00;;;;;;;14.84;42.20;100847.75;10488078;28;20312;-78
2022/07/28 02:38:06;;;;;;;3.87;0.93;;;;;;;15.01;41.29;100836.16;10476603;28;20191;-79
2022/07/28 02:43:13;;;;;;;3.33;0.73;;;;;;;14.42;42.71;100842.16;10473054;28;20192;-78
2022/07/28 02:48:18;;;;;;;2.87;0.60;;;;;;;14.72;42.03;100840.81;10493622;28;20614;-78
2022/07/28 02:53:22;;;;;;;5.40;1.10;;;;;;;14.73;42.32;100833.13;10484314;28;20196;-79
2022/07/28 02:58:26;;;;;;;2.00;0.80;;;;;;;14.53;42.81;100854.72;10472569;28;20192;-78
2022/07/28 03:03:29;;;;;;;3.17;0.80;;;;;;;14.72;42.56;100837.97;10470303;28;20200;-78
2022/07/28 03:08:31;;;;;;;3.80;0.77;;;;;;;14.38;43.01;100838.38;10485508;28;20712;-80
2022/07/28 03:13:33;;;;;;;3.77;0.90;;;;;;;14.55;42.46;100840.19;10473211;28;20276;-79
2022/07/28 03:18:36;;;;;;;5.20;1.07;;;;;;;14.71;42.33;100825.00;10447441;28;20203;-78
2022/07/28 03:23:43;;;;;;;4.00;0.73;;;;;;;14.78;41.79;100828.09;10467768;28;20227;-78
2022/07/28 03:28:46;;;;;;;2.10;0.77;;;;;;;14.53;42.91;100840.53;10471292;28;20293;-77
2022/07/28 03:33:48;;;;;;;3.70;1.20;;;;;;;14.51;42.93;100837.22;10489376;28;20211;-83
2022/07/28 03:38:57;;;;;;;3.30;0.90;;;;;;;14.47;43.21;100839.09;10496551;28;20529;-79
2022/07/28 03:43:59;;;;;;;3.73;0.80;;;;;;;14.29;43.92;100840.47;10495121;28;20248;-78
2022/07/28 03:49:06;;;;;;;5.93;1.10;;;;;;;14.19;43.96;100850.25;10494496;28;20300;-77
2022/07/28 03:54:09;;;;;;;6.03;0.93;;;;;;;14.14;43.87;100839.09;10494959;28;20256;-78
2022/07/28 03:59:12;;;;;;;2.10;0.93;;;;;;;14.04;44.35;100843.19;10511254;28;20665;-79
2022/07/28 04:04:14;;;;;;;3.53;1.07;;;;;;;14.25;44.29;100856.50;10494585;28;20218;-78
2022/07/28 04:09:17;;;;;;;6.77;1.10;;;;;;;14.26;44.21;100849.66;10476778;28;20548;-78
2022/07/28 04:14:19;;;;;;;4.33;1.13;;;;;;;14.17;44.11;100851.75;10486456;28;20245;-83
2022/07/28 04:19:22;;;;;;;7.80;1.17;;;;;;;14.40;43.69;100851.03;10494239;28;20583;-79
2022/07/28 04:24:24;;;;;;;4.27;1.20;;;;;;;14.30;44.33;100842.13;10494387;28;20217;-78
2022/07/28 04:29:26;;;;;;;4.23;0.90;;;;;;;13.99;45.05;100849.06;10493570;28;20243;-85
2022/07/28 04:34:28;;;;;;;8.20;1.03;;;;;;;13.60;46.17;100836.19;10503395;28;20230;-78
2022/07/28 04:39:31;;;;;;;3.00;1.23;;;;;;;13.89;45.60;100835.28;10509440;28;20190;-78
2022/07/28 04:44:34;;;;;;;2.60;0.87;;;;;;;14.40;44.41;100833.16;10509586;28;20598;-79
2022/07/28 04:49:36;;;;;;;4.20;1.13;;;;;;;13.66;46.38;100834.81;10502563;28;20553;-79
2022/07/28 04:54:39;;;;;;;3.20;1.10;;;;;;;14.10;44.75;100836.13;10452011;28;20184;-78
2022/07/28 04:59:41;;;;;;;3.90;1.30;;;;;;;14.49;43.86;100841.56;10478554;28;20487;-78
2022/07/28 05:04:44;;;;;;;4.37;0.90;;;;;;;14.44;44.34;100846.31;10477872;28;20253;-79
2022/07/28 05:09:47;;;;;;;3.20;1.03;;;;;;;14.38;44.71;100844.03;10501449;28;20254;-79
2022/07/28 05:14:49;;;;;;;4.40;1.40;;;;;;;14.26;44.90;100844.81;10480642;28;20257;-78
2022/07/28 05:19:51;;;;;;;6.37;1.37;;;;;;;14.16;45.21;100833.09;10508359;28;20218;-79
2022/07/28 05:24:53;;;;;;;3.10;1.33;;;;;;;14.22;45.08;100843.84;10509360;28;20222;-79
2022/07/28 05:29:56;;;;;;;5.93;1.40;;;;;;;14.32;45.19;100845.44;10508429;28;20264;-79
2022/07/28 05:34:58;;;;;;;3.70;1.50;;;;;;;14.38;45.09;100846.88;10493072;28;20579;-79
2022/07/28 05:40:02;;;;;;;5.50;1.53;;;;;;;14.37;44.44;100837.53;10476799;28;20210;-79
2022/07/28 05:45:06;;;;;;;2.83;1.47;;;;;;;14.48;44.76;100834.25;10488318;28;20586;-78
2022/07/28 05:50:20;;;;;;;5.00;1.30;;;;;;;14.59;44.47;100841.97;10493678;28;20300;-81
2022/07/28 05:55:22;;;;;;;4.53;1.10;;;;;;;14.74;44.50;100838.44;10482529;28;20693;-82
2022/07/28 06:00:25;;;;;;;2.70;1.30;;;;;;;14.71;44.30;100844.84;10497481;28;20499;-80
2022/07/28 06:05:29;;;;;;;5.47;1.10;;;;;;;14.88;43.78;100840.16;10470865;28;20231;-80
2022/07/28 06:15:53;;;;;;;2.60;1.20;;;;;;;15.01;43.88;100847.50;10482467;28;20491;-79
2022/07/28 06:20:55;;;;;;;6.90;1.93;;;;;;;14.84;44.08;100842.06;10490072;28;20230;-79
2022/07/28 06:25:58;;;;;;;5.60;1.67;;;;;;;14.58;44.69;100846.00;10489369;28;20257;-80
2022/07/28 06:31:00;;;;;;;3.70;1.50;;;;;;;14.19;45.19;100841.72;10496135;28;20246;-82
2022/07/28 06:36:02;;;;;;;4.97;1.40;;;;;;;14.53;45.14;100840.53;10488368;28;20555;-78
2022/07/28 06:41:04;;;;;;;7.00;1.40;;;;;;;14.63;44.76;100836.41;10469428;28;20256;-82
2022/07/28 06:46:07;;;;;;;4.70;1.67;;;;;;;14.48;45.40;100840.75;10485409;28;20491;-79
2022/07/28 06:51:09;;;;;;;3.77;1.30;;;;;;;14.70;44.92;100829.00;10488711;28;20320;-79
2022/07/28 06:56:11;;;;;;;5.50;1.70;;;;;;;15.05;44.32;100831.44;10486561;28;20273;-83
2022/07/28 07:01:16;;;;;;;6.75;1.48;;;;;;;15.19;43.08;100831.91;10478943;28;20698;-82
2022/07/28 07:06:19;;;;;;;4.80;0.77;;;;;;;15.45;42.33;100834.38;10461770;28;20255;-81
2022/07/28 07:11:21;;;;;;;6.68;1.25;;;;;;;15.78;41.93;100837.06;10488726;28;20251;-82
2022/07/28 07:16:24;;;;;;;4.97;1.30;;;;;;;15.86;42.00;100831.25;10488810;28;20271;-84
2022/07/28 07:21:26;;;;;;;3.72;1.10;;;;;;;15.91;42.02;100824.47;10454396;28;20192;-83
2022/07/28 07:26:28;;;;;;;7.23;1.10;;;;;;;15.81;41.89;100836.34;10472708;28;20285;-80
2022/07/28 07:31:32;;;;;;;3.43;0.60;;;;;;;16.03;41.25;100835.78;10473491;28;20280;-78
2022/07/28 07:36:35;;;;;;;4.90;0.70;;;;;;;16.30;39.15;100836.19;10488362;28;20199;-82
2022/07/28 07:41:37;;;;;;;4.77;0.70;;;;;;;16.22;40.04;100818.06;10475889;28;20223;-81
2022/07/28 07:46:40;;;;;;;4.38;0.85;;;;;;;16.76;38.26;100809.84;10475579;28;20272;-82
2022/07/28 07:51:43;;;;;;;3.15;0.68;;;;;;;16.87;38.79;100813.78;10494280;28;20545;-78
2022/07/28 07:56:45;;;;;;;2.60;0.80;;;;;;;17.08;38.40;100799.28;10474857;28;20610;-83
2022/07/28 08:01:53;;;;;;;5.37;0.73;;;;;;;16.70;37.84;100799.91;10493133;28;20195;-81
2022/07/28 08:06:55;;;;;;;4.85;0.40;;;;;;;17.16;37.44;100800.31;10483983;28;20261;-79
2022/07/28 08:11:58;;;;;;;3.38;0.75;;;;;;;17.65;36.88;100797.84;10493075;28;20246;-77
2022/07/28 08:17:00;;;;;;;6.40;0.50;;;;;;;17.63;36.95;100795.34;10490455;28;20231;-81
2022/07/28 08:22:03;;;;;;;3.55;0.80;;;;;;;17.81;36.19;100790.06;10493311;28;20192;-85
2022/07/28 08:27:05;;;;;;;7.03;0.90;;;;;;;17.95;36.87;100789.53;10494524;28;20191;-78
2022/07/28 08:32:07;;;;;;;4.32;0.90;;;;;;;18.28;37.00;100781.28;10494115;28;20810;-78
2022/07/28 08:37:10;;;;;;;2.83;1.05;;;;;;;18.53;35.60;100776.03;10476081;28;20483;-84
2022/07/28 08:43:02;;;;;;;4.22;0.90;;;;;;;18.74;35.72;100769.09;10489917;28;20268;-86
2022/07/28 08:48:06;;;;;;;4.72;0.75;;;;;;;19.07;34.07;100766.41;10452136;28;20231;-85
2022/07/28 08:53:13;;;;;;;2.92;0.60;;;;;;;19.38;34.66;100756.69;10458023;28;20210;-85
2022/07/28 08:58:16;;;;;;;5.07;0.68;;;;;;;19.07;34.32;100763.53;10476866;28;20191;-85
2022/07/28 09:03:19;;;;;;;3.17;1.05;;;;;;;19.35;33.34;100768.88;10474635;28;20268;-84
2022/07/28 09:08:24;;;;;;;5.90;1.17;;;;;;;19.23;34.16;100771.97;10459329;28;20496;-84
2022/07/28 09:13:26;;;;;;;3.75;1.00;;;;;;;19.43;33.54;100767.75;10472452;28;20191;-83
2022/07/28 09:18:29;;;;;;;8.50;0.90;;;;;;;20.30;32.59;100762.84;10459050;28;20195;-83
2022/07/28 09:23:43;;;;;;;5.68;0.73;;;;;;;20.62;31.44;100758.25;10499390;28;20558;-84
2022/07/28 09:29:07;;;;;;;6.80;1.05;;;;;;;19.78;32.11;100758.09;10483345;28;20828;-84
2022/07/28 09:34:09;;;;;;;4.25;0.80;;;;;;;20.20;32.77;100755.75;10475491;28;20211;-83
2022/07/28 09:39:33;;;;;;;11.20;5.22;;;;;;;19.82;32.38;100754.03;10481563;28;20281;-83
2022/07/28 09:44:35;;;;;;;1.58;0.43;;;;;;;20.27;30.81;100741.53;10498337;28;20438;-81
2022/07/28 09:49:41;;;;;;;2.20;0.50;;;;;;;20.44;31.40;100728.59;10479274;28;20246;-85
2022/07/28 09:55:07;;;;;;;3.15;0.68;;;;;;;20.54;30.86;100721.34;10491277;28;20195;-83
2022/07/28 10:00:11;;;;;;;3.30;0.70;;;;;;;20.04;31.25;100729.38;10480820;28;20195;-84
2022/07/28 10:05:15;;;;;;;4.35;0.80;;;;;;;20.40;32.00;100728.59;10498943;28;20287;-80
2022/07/28 10:10:21;;;;;;;6.10;0.95;;;;;;;20.58;31.74;100725.03;10456906;28;20273;-84
2022/07/28 10:20:52;;;;;;;2.55;0.80;;;;;;;20.70;30.48;100701.81;10481784;28;20258;-79
2022/07/28 10:25:55;;;;;;;4.03;0.90;;;;;;;20.60;30.29;100709.13;10462837;28;20246;-79
2022/07/28 10:30:59;;;;;;;4.00;0.65;;;;;;;20.29;30.92;100710.47;10464830;28;20247;-79
2022/07/28 10:36:02;;;;;;;5.35;0.73;;;;;;;21.00;30.68;100699.66;10456046;28;20264;-78
2022/07/28 10:41:06;;;;;;;3.70;0.70;;;;;;;20.72;30.54;100699.41;10480715;28;20187;-79
2022/07/28 10:46:09;;;;;;;2.50;0.50;;;;;;;21.43;29.54;100694.22;10478880;28;20599;-81
2022/07/28 10:51:20;;;;;;;1.15;0.60;;;;;;;20.89;28.72;100690.16;10454046;28;20247;-83
2022/07/28 10:56:34;;;;;;;3.72;0.80;;;;;;;22.03;27.62;100693.66;10500876;28;20238;-79
2022/07/28 11:01:38;;;;;;;2.85;0.60;;;;;;;21.20;29.16;100685.06;10472480;28;20281;-82
2022/07/28 11:07:08;;;;;;;1.90;0.55;;;;;;;21.67;29.24;100682.03;10583305;22;20622;-79
2022/07/28 11:12:14;;;;;;;1.67;0.65;;;;;;;21.42;28.20;100684.78;10477197;28;20250;-81
2022/07/28 11:17:18;;;;;;;5.03;1.00;;;;;;;21.70;29.90;100669.75;10447577;28;20231;-76
2022/07/28 11:22:29;;;;;;;2.35;0.60;;;;;;;22.39;27.46;100668.69;10478523;28;20582;-77
2022/07/28 11:27:40;;;;;;;3.67;0.52;;;;;;;22.02;27.15;100669.03;10487945;28;20244;-77
2022/07/28 11:32:48;;;;;;;5.78;0.57;;;;;;;22.50;27.71;100661.75;10456946;28;20312;-82
2022/07/28 11:37:59;;;;;;;2.22;0.50;;;;;;;22.11;28.20;100655.13;10457436;28;20652;-81
2022/07/28 11:43:20;;;;;;;3.80;0.70;;;;;;;22.44;27.61;100636.69;10454442;28;20226;-79
2022/07/28 11:48:25;;;;;;;7.53;0.95;;;;;;;22.92;27.51;100634.22;10485574;28;20256;-81
2022/07/28 11:53:42;;;;;;;5.85;1.08;;;;;;;22.62;26.47;100628.94;10480883;28;20580;-81
2022/07/28 11:58:44;;;;;;;3.03;1.08;;;;;;;22.32;27.87;100632.19;10459315;28;20203;-80
2022/07/28 12:03:49;;;;;;;2.88;0.60;;;;;;;22.93;27.92;100627.22;10486327;28;20272;-79
2022/07/28 12:09:03;;;;;;;3.47;0.75;;;;;;;22.27;27.59;100623.97;10418314;28;20259;-80
2022/07/28 12:14:10;;;;;;;4.97;1.02;;;;;;;22.27;27.41;100623.16;10451530;28;20227;-80
2022/07/28 12:19:17;;;;;;;3.95;0.70;;;;;;;23.44;26.64;100605.72;10407061;28;20228;-78
2022/07/28 12:24:28;;;;;;;5.30;0.70;;;;;;;22.87;27.77;100609.59;10444626;28;20276;-77
2022/07/28 12:29:30;;;;;;;5.95;0.90;;;;;;;23.80;26.52;100601.47;10437406;28;20239;-81
2022/07/28 12:34:38;;;;;;;5.32;0.80;;;;;;;23.64;26.62;100600.31;10442137;28;20192;-81
2022/07/28 12:39:43;;;;;;;5.50;0.90;;;;;;;23.65;25.21;100594.16;10442606;28;20223;-80
2022/07/28 12:44:47;;;;;;;6.30;0.70;;;;;;;23.43;26.31;100592.56;10435016;28;20516;-81
2022/07/28 12:50:07;;;;;;;3.15;0.98;;;;;;;22.53;27.21;100591.13;10436443;28;20243;-81
2022/07/28 12:55:21;;;;;;;3.50;0.68;;;;;;;24.10;25.04;100585.63;10430707;28;20216;-78
2022/07/28 13:00:26;;;;;;;2.83;0.60;;;;;;;23.33;27.46;100577.00;10441568;28;20599;-79
2022/07/28 13:10:58;;;;;;;3.40;0.60;;;;;;;23.86;25.91;100571.00;10458673;28;20220;-79
2022/07/28 13:16:15;;;;;;;5.20;0.75;;;;;;;24.47;26.30;100571.31;10442035;28;20221;-79
2022/07/28 13:21:42;;;;;;;5.75;0.88;;;;;;;23.92;26.37;100583.72;10483676;28;20237;-79
2022/07/28 13:27:00;;;;;;;2.08;0.68;;;;;;;24.02;24.51;100572.53;10476670;28;20194;-79
2022/07/28 13:32:03;;;;;;;3.97;0.80;;;;;;;24.43;24.86;100561.94;10482645;28;20599;-79
2022/07/28 13:37:05;;;;;;;5.80;0.73;;;;;;;23.13;26.37;100573.00;10475879;28;20203;-79
2022/07/28 13:42:08;;;;;;;4.20;0.90;;;;;;;22.69;27.01;100556.25;10469655;28;20464;-79
2022/07/28 13:47:14;;;;;;;2.35;0.60;;;;;;;25.13;25.22;100536.44;10502159;28;20191;-78
2022/07/28 13:52:18;;;;;;;1.95;0.77;;;;;;;23.54;28.04;100541.59;10463865;28;20990;-78
2022/07/28 13:57:36;;;;;;;2.45;0.90;;;;;;;22.55;28.01;100549.31;10503652;28;20195;-81
2022/07/28 14:02:38;;;;;;;2.20;0.77;;;;;;;22.66;27.41;100542.72;10480044;28;20249;-78
2022/07/28 14:07:46;;;;;;;4.30;0.80;;;;;;;23.88;26.66;100531.09;10466766;28;20223;-78
2022/07/28 14:12:50;;;;;;;3.95;0.57;;;;;;;24.01;26.60;100542.09;10496190;28;20231;-77
2022/07/28 14:17:52;;;;;;;1.63;0.40;;;;;;;24.17;25.60;100533.72;10484328;28;20591;-79
2022/07/28 14:22:57;;;;;;;2.00;0.75;;;;;;;24.86;26.12;100519.06;10515514;28;20213;-79
2022/07/28 14:27:59;;;;;;;2.33;0.57;;;;;;;24.94;25.18;100519.81;10477326;28;20832;-78
2022/07/28 14:33:04;;;;;;;3.50;0.70;;;;;;;24.82;26.45;100520.38;10493367;28;20212;-78
2022/07/28 14:38:08;;;;;;;5.22;0.68;;;;;;;24.47;25.83;100512.88;10459224;28;20240;-77
2022/07/28 14:43:31;;;;;;;3.92;0.50;;;;;;;24.09;25.40;100509.09;10473969;28;20203;-76
2022/07/28 14:48:33;;;;;;;4.47;0.63;;;;;;;24.21;26.04;100502.84;10488482;28;20199;-79
2022/07/28 14:53:35;;;;;;;7.90;0.90;;;;;;;24.64;25.33;100495.41;10465809;28;20224;-77
2022/07/28 14:58:44;;;;;;;3.03;0.90;;;;;;;24.31;25.16;100510.59;10507887;28;20249;-77
2022/07/28 15:03:46;;;;;;;2.92;0.70;;;;;;;25.17;25.55;100493.97;10492314;28;20184;-78
2022/07/28 15:08:49;;;;;;;3.22;0.50;;;;;;;24.45;26.21;100493.16;10483067;28;20630;-78
2022/07/28 15:13:51;;;;;;;2.97;0.60;;;;;;;24.95;25.07;100489.72;10488653;28;20276;-77
2022/07/28 15:18:54;;;;;;;5.13;0.73;;;;;;;25.26;24.98;100491.38;10479064;28;20218;-77
2022/07/28 15:23:56;;;;;;;3.72;0.63;;;;;;;24.52;24.88;100495.97;10496846;28;20291;-77
2022/07/28 15:28:58;;;;;;;4.93;0.60;;;;;;;24.39;25.38;100500.63;10472002;28;20218;-77
2022/07/28 15:34:01;;;;;;;3.28;0.57;;;;;;;24.09;25.60;100497.59;10476915;28;20203;-78
2022/07/28 15:39:06;;;;;;;3.60;0.70;;;;;;;24.33;24.87;100499.44;10482942;28;20522;-77
2022/07/28 15:44:11;;;;;;;5.82;0.95;;;;;;;24.71;25.15;100482.19;10476099;28;20187;-77
2022/07/28 15:49:14;;;;;;;2.60;0.70;;;;;;;24.99;25.55;100481.81;10474793;28;20595;-77
2022/07/28 15:54:18;;;;;;;2.33;0.80;;;;;;;24.03;26.35;100487.78;10479892;28;20246;-77
2022/07/28 15:59:20;;;;;;;2.72;0.80;;;;;;;24.64;25.69;100478.13;10460107;28;20211;-77
2022/07/28 16:04:22;;;;;;;2.90;0.70;;;;;;;24.34;26.80;100489.56;10459423;28;20200;-77
2022/07/28 16:09:25;;;;;;;5.15;0.95;;;;;;;24.22;26.41;100472.81;10479070;28;20227;-77
2022/07/28 16:14:48;;;;;;;5.50;0.70;;;;;;;23.94;26.66;100480.44;10479344;28;20219;-79
2022/07/28 16:19:50;;;;;;;4.45;0.70;;;;;;;24.20;26.31;100476.09;10474273;28;20232;-77
2022/07/28 16:24:53;;;;;;;3.03;0.70;;;;;;;23.43;27.57;100484.09;10498840;28;20217;-77
2022/07/28 16:29:55;;;;;;;1.55;0.60;;;;;;;23.90;26.49;100479.66;10447385;28;20541;-77
2022/07/28 16:34:57;;;;;;;2.70;0.80;;;;;;;24.03;27.46;100487.78;10457054;28;20615;-77
2022/07/28 16:40:02;;;;;;;5.68;0.90;;;;;;;24.03;26.41;100487.78;10493050;28;20203;-77
2022/07/28 16:45:04;;;;;;;6.32;0.90;;;;;;;23.45;27.10;100480.78;10472799;28;20237;-77
2022/07/28 16:50:07;;;;;;;3.13;0.60;;;;;;;23.89;27.84;100480.09;10455666;28;20488;-77
2022/07/28 16:55:09;;;;;;;4.45;0.68;;;;;;;23.69;26.61;100479.00;10477813;28;20260;-78
2022/07/28 17:00:20;;;;;;;5.18;0.75;;;;;;;23.14;26.68;100474.00;10465729;28;20195;-77
2022/07/28 17:05:22;;;;;;;2.53;0.70;;;;;;;23.35;27.32;100476.75;10478497;28;20265;-77
2022/07/28 17:10:26;;;;;;;1.92;0.60;;;;;;;23.14;27.65;100466.19;10483652;28;20196;-77
2022/07/28 17:15:28;;;;;;;2.63;0.77;;;;;;;22.99;27.74;100473.22;10475610;28;20195;-77
2022/07/28 17:20:31;;;;;;;4.07;0.73;;;;;;;23.03;27.55;100471.13;10474381;28;20504;-79
2022/07/28 17:25:34;;;;;;;3.53;0.73;;;;;;;22.64;27.70;100467.63;10482682;28;20245;-77
2022/07/28 17:30:56;;;;;;;1.60;0.50;;;;;;;22.78;26.69;100470.44;10479108;28;20236;-77
2022/07/28 17:35:58;;;;;;;3.33;0.65;;;;;;;23.02;26.97;100469.53;10490001;28;20252;-77
2022/07/28 17:41:02;;;;;;;1.33;0.60;;;;;;;23.31;26.71;100478.00;10471456;28;20191;-77
2022/07/28 17:46:07;;;;;;;2.13;0.50;;;;;;;23.17;27.38;100479.72;10494204;28;20245;-77
2022/07/28 17:51:12;;;;;;;4.07;0.80;;;;;;;22.69;27.09;100481.56;10467187;28;20234;-77
2022/07/28 17:56:14;;;;;;;4.72;0.80;;;;;;;23.27;26.83;100465.72;10463544;28;20908;-77
2022/07/28 18:01:17;;;;;;;2.13;0.80;;;;;;;22.55;27.81;100480.38;10452960;28;20239;-77
2022/07/28 18:06:19;;;;;;;4.50;0.75;;;;;;;22.86;27.52;100470.00;10483332;28;20292;-77
2022/07/28 18:11:22;;;;;;;6.65;0.80;;;;;;;22.98;27.00;100471.59;10469606;28;20234;-80
2022/07/28 18:16:24;;;;;;;3.50;0.90;;;;;;;22.79;27.85;100477.81;10496862;28;20226;-79
2022/07/28 18:21:27;;;;;;;5.72;0.82;;;;;;;23.05;27.22;100479.34;10497880;28;20563;-81
2022/07/28 18:26:29;;;;;;;3.97;0.90;;;;;;;22.55;28.33;100480.38;10489833;28;20231;-79
2022/07/28 18:31:32;;;;;;;3.60;0.98;;;;;;;22.37;28.34;100467.28;10454398;28;20289;-79
2022/07/28 18:36:34;;;;;;;6.43;0.90;;;;;;;22.50;28.59;100483.66;10476760;28;20191;-79
2022/07/28 18:41:37;;;;;;;5.70;1.10;;;;;;;22.81;28.06;100481.09;10479183;28;20245;-78
2022/07/28 18:46:48;;;;;;;3.72;0.90;;;;;;;22.15;28.85;100486.56;10491833;28;20230;-79
2022/07/28 18:51:51;;;;;;;4.68;0.82;;;;;;;22.44;27.97;100487.34;10497644;28;20245;-78
2022/07/28 18:56:55;;;;;;;6.03;0.70;;;;;;;22.14;28.40;100482.06;10471253;28;20280;-78
2022/07/28 19:01:57;;;;;;;2.65;0.93;;;;;;;22.52;29.12;100481.16;10482078;28;20575;-80
2022/07/28 19:06:59;;;;;;;2.65;0.90;;;;;;;21.79;29.44;100483.69;10504895;28;20250;-78
2022/07/28 19:12:02;;;;;;;5.65;1.00;;;;;;;21.93;30.11;100477.13;10492017;28;20320;-80
2022/07/28 19:17:05;;;;;;;6.10;1.02;;;;;;;21.74;30.00;100486.13;10490244;28;20234;-78
2022/07/28 19:22:08;;;;;;;2.53;1.05;;;;;;;21.91;29.35;100490.25;10453892;28;20281;-78
2022/07/28 19:27:10;;;;;;;6.40;1.05;;;;;;;21.60;30.20;100498.41;10453120;28;20227;-78
2022/07/28 19:32:12;;;;;;;5.90;0.82;;;;;;;21.10;30.62;100504.00;10494260;28;20269;-78
2022/07/28 19:37:15;;;;;;;6.20;1.38;;;;;;;21.63;29.96;100508.25;10491989;28;20611;-78
2022/07/28 19:42:18;;;;;;;3.55;0.85;;;;;;;21.92;29.74;100521.41;10487629;28;20924;-78
2022/07/28 19:47:22;;;;;;;6.30;1.00;;;;;;;22.16;29.11;100522.66;10466056;28;20241;-79
2022/07/28 19:52:24;;;;;;;3.35;0.80;;;;;;;22.17;29.15;100527.16;10484366;28;20235;-78
2022/07/28 19:57:27;;;;;;;3.30;0.80;;;;;;;21.64;29.66;100529.97;10473596;28;20226;-77
2022/07/28 20:02:29;;;;;;;6.47;0.90;;;;;;;21.21;30.31;100543.38;10475440;28;20280;-77
2022/07/28 20:07:33;;;;;;;3.05;0.70;;;;;;;21.15;30.20;100545.78;10499762;28;20256;-78
2022/07/28 20:12:36;;;;;;;3.47;0.70;;;;;;;21.23;29.79;100547.44;10472691;28;20273;-77
2022/07/28 20:17:38;;;;;;;6.25;0.88;;;;;;;21.10;29.83;100544.13;10487788;28;20277;-78
2022/07/28 20:22:41;;;;;;;4.03;1.00;;;;;;;21.41;29.64;100547.53;10478124;28;20223;-77
2022/07/28 20:27:43;;;;;;;3.10;0.80;;;;;;;21.44;30.01;100543.88;10487834;28;20227;-79
2022/07/28 20:32:46;;;;;;;3.78;0.65;;;;;;;20.90;30.49;100544.84;10438897;28;20273;-77
2022/07/28 20:37:48;;;;;;;4.55;0.90;;;;;;;21.33;29.85;100540.94;10501520;28;20665;-80
2022/07/28 20:42:52;;;;;;;3.63;0.63;;;;;;;21.24;30.18;100545.41;10449155;28;20219;-78
2022/07/28 20:47:55;;;;;;;6.55;1.35;;;;;;;21.19;30.16;100557.28;10475057;28;20603;-78
2022/07/28 20:52:58;;;;;;;5.47;1.00;;;;;;;21.33;29.70;100551.59;10491756;28;20292;-76
2022/07/28 20:58:11;;;;;;;6.47;0.80;;;;;;;20.68;30.71;100561.06;10450539;28;20533;-78
2022/07/28 21:03:15;;;;;;;2.85;0.80;;;;;;;20.89;30.76;100564.09;10489637;28;20227;-78
2022/07/28 21:08:17;;;;;;;3.42;0.80;;;;;;;21.04;30.06;100560.06;10473870;28;20254;-79
2022/07/28 21:13:20;;;;;;;3.58;0.60;;;;;;;21.12;30.08;100564.59;10483898;28;20247;-78
2022/07/28 21:18:22;;;;;;;2.83;0.63;;;;;;;21.07;30.05;100555.59;10445673;28;20285;-79
2022/07/28 21:23:24;;;;;;;4.45;0.73;;;;;;;20.56;31.24;100565.09;10449221;28;20223;-77
2022/07/28 21:33:48;;;;;;;2.72;1.10;;;;;;;20.71;30.81;100561.06;10436964;28;20273;-78
2022/07/28 21:38:51;;;;;;;6.47;0.95;;;;;;;21.05;29.87;100558.84;10433764;28;20227;-79
2022/07/28 21:43:55;;;;;;;3.00;0.60;;;;;;;21.02;30.14;100553.91;10452323;28;20231;-78
2022/07/28 21:49:04;;;;;;;7.97;0.85;;;;;;;20.63;30.90;100544.25;10449184;28;20690;-79
2022/07/28 21:54:06;;;;;;;4.05;0.75;;;;;;;20.44;30.93;100546.16;10428977;28;20267;-78
2022/07/28 21:59:09;;;;;;;4.13;1.10;;;;;;;20.42;30.86;100550.69;10419657;28;20269;-77
2022/07/28 22:04:11;;;;;;;3.10;0.70;;;;;;;20.60;31.14;100547.91;10439029;28;20592;-79
2022/07/28 22:09:14;;;;;;;4.35;0.95;;;;;;;20.64;31.01;100540.19;10451777;28;20248;-78
2022/07/28 22:14:17;;;;;;;4.35;0.63;;;;;;;20.83;30.48;100544.78;10453906;28;20247;-78
2022/07/28 22:19:20;;;;;;;3.58;0.50;;;;;;;20.90;30.03;100554.28;10463521;28;20548;-77
2022/07/28 22:24:22;;;;;;;2.28;0.80;;;;;;;20.40;31.46;100553.94;10449958;28;20315;-78
2022/07/28 22:29:24;;;;;;;4.53;0.80;;;;;;;20.21;31.59;100562.78;10466721;28;20618;-78
2022/07/28 22:34:27;;;;;;;7.28;1.20;;;;;;;20.37;31.10;100571.06;10467008;28;20303;-79
2022/07/28 22:39:29;;;;;;;1.75;0.82;;;;;;;20.17;31.01;100564.78;10467213;28;20297;-78
2022/07/28 22:44:32;;;;;;;4.93;1.13;;;;;;;20.32;31.02;100572.25;10444806;28;20199;-79
2022/07/28 22:49:34;;;;;;;3.47;0.70;;;;;;;19.84;32.17;100570.56;10458296;28;20936;-79
2022/07/28 22:54:39;;;;;;;3.88;0.60;;;;;;;20.56;30.94;100558.53;10462067;28;20325;-79
2022/07/28 22:59:43;;;;;;;4.28;0.73;;;;;;;19.90;31.67;100571.88;10443265;28;20223;-79
2022/07/28 23:04:52;;;;;;;6.40;1.10;;;;;;;20.15;31.29;100560.66;10476075;28;20227;-79
2022/07/28 23:10:00;;;;;;;1.73;0.75;;;;;;;19.98;31.97;100571.53;10439114;28;20259;-80
2022/07/28 23:15:04;;;;;;;6.15;0.80;;;;;;;19.99;31.49;100563.78;10441775;28;20239;-78
2022/07/28 23:20:07;;;;;;;5.13;1.25;;;;;;;20.01;31.91;100561.34;10466687;28;20242;-78
2022/07/28 23:25:09;;;;;;;2.05;0.75;;;;;;;20.03;31.65;100558.91;10451766;28;20239;-79
2022/07/28 23:30:12;;;;;;;6.47;0.98;;;;;;;19.85;31.85;100558.75;10439014;28;20219;-78
2022/07/28 23:35:14;;;;;;;4.13;0.88;;;;;;;20.09;31.54;100555.28;10448519;28;20288;-79
2022/07/28 23:40:16;;;;;;;5.97;1.05;;;;;;;19.85;31.76;100552.19;10461200;28;20223;-77
2022/07/28 23:45:19;;;;;;;4.72;1.20;;;;;;;19.77;32.38;100551.31;10444134;28;20294;-79